Time;durP1;ratioP1;P1;durP2;ratioP2;P2;SDS_P1;SDS_P2;PMS_P1;PMS_P2;Temp;Humidity;BMP_temperature;BMP_pressure;BME280_temperature;BME280_humidity;BME280_pressure;Samples;Min_cycle;Max_cycle;Signal;HPM_P1;HPM_P2
2021/11/21 00:01:06;;;;;;;17.35;5.33;;;;;;;4.71;64.65;99721.32;1741478;80;21565;-72
2021/11/21 00:03:34;;;;;;;14.28;4.37;;;;;;;4.66;64.84;99716.88;1735156;80;21840;-73
2021/11/21 00:06:00;;;;;;;16.20;4.55;;;;;;;4.62;65.04;99717.16;1743793;80;21044;-72
2021/11/21 00:08:27;;;;;;;14.83;4.90;;;;;;;4.60;65.19;99713.34;1748636;80;21021;-72
2021/11/21 00:10:54;;;;;;;16.42;5.12;;;;;;;4.57;65.28;99709.16;1748949;80;21257;-72
2021/11/21 00:13:21;;;;;;;19.37;6.12;;;;;;;4.56;65.37;99707.95;1716504;82;20952;-72
2021/11/21 00:15:48;;;;;;;17.73;5.97;;;;;;;4.54;65.46;99701.99;1683532;83;22597;-72
2021/11/21 00:18:14;;;;;;;18.37;6.62;;;;;;;4.50;65.55;99701.80;1712779;83;21012;-71
2021/11/21 00:20:43;;;;;;;15.20;6.70;;;;;;;4.45;65.62;99703.42;1706284;83;20977;-71
2021/11/21 00:23:09;;;;;;;16.07;5.62;;;;;;;4.35;65.52;99707.58;1705122;83;21028;-72
2021/11/21 00:25:36;;;;;;;12.88;4.85;;;;;;;4.20;65.45;99712.46;1691052;83;21522;-72
2021/11/21 00:28:03;;;;;;;12.93;4.85;;;;;;;4.06;65.55;99718.58;1709316;83;22183;-72
2021/11/21 00:30:30;;;;;;;9.80;3.58;;;;;;;3.97;65.74;99712.15;1698341;83;21044;-72
2021/11/21 00:32:57;;;;;;;10.78;4.12;;;;;;;3.89;65.89;99711.78;1691626;84;21303;-72
2021/11/21 00:35:25;;;;;;;14.30;4.12;;;;;;;3.79;66.08;99711.98;1685233;84;21440;-72
2021/11/21 00:37:51;;;;;;;11.35;3.52;;;;;;;3.73;66.30;99717.58;1694477;83;20955;-72
2021/11/21 00:40:18;;;;;;;11.68;3.87;;;;;;;3.66;66.58;99713.19;1690801;84;21755;-72
2021/11/21 00:42:45;;;;;;;12.15;3.80;;;;;;;3.63;66.77;99704.72;1691967;83;21511;-72
2021/11/21 00:45:12;;;;;;;12.68;3.80;;;;;;;3.61;67.00;99696.14;1722589;81;20956;-71
2021/11/21 00:47:41;;;;;;;9.65;3.10;;;;;;;3.60;67.22;99692.70;1687593;85;20996;-71
2021/11/21 00:50:09;;;;;;;11.50;3.72;;;;;;;3.63;67.36;99692.97;1698984;83;21000;-72
2021/11/21 00:52:37;;;;;;;13.72;4.10;;;;;;;3.62;67.53;99689.52;1706814;84;22262;-72
2021/11/21 00:55:10;;;;;;;13.43;3.80;;;;;;;3.63;67.72;99693.80;1693976;84;20971;-72
2021/11/21 00:57:34;;;;;;;14.05;4.47;;;;;;;3.62;67.87;99686.91;1741441;82;20962;-72
2021/11/21 01:00:01;;;;;;;12.90;4.37;;;;;;;3.59;68.09;99688.41;1690224;83;20988;-72
2021/11/21 01:02:28;;;;;;;11.38;3.58;;;;;;;3.58;68.14;99691.12;1724698;82;21531;-70
2021/11/21 01:04:55;;;;;;;12.28;4.12;;;;;;;3.58;68.19;99687.20;1731817;82;21786;-70
2021/11/21 01:07:24;;;;;;;10.58;3.70;;;;;;;3.57;68.24;99694.63;1734573;82;20945;-71
2021/11/21 01:09:50;;;;;;;12.95;3.98;;;;;;;3.55;68.31;99699.12;1686199;84;21060;-70
2021/11/21 01:12:17;;;;;;;16.97;4.83;;;;;;;3.50;68.50;99699.41;1734514;82;20994;-71
2021/11/21 01:14:44;;;;;;;11.30;4.00;;;;;;;3.47;68.56;99704.80;1730944;82;21379;-71
2021/11/21 01:17:11;;;;;;;16.10;4.10;;;;;;;3.47;68.68;99710.02;1721416;82;21873;-70
2021/11/21 01:19:38;;;;;;;14.30;4.60;;;;;;;3.47;68.85;99703.96;1701097;83;21009;-70
2021/11/21 01:22:05;;;;;;;12.93;4.17;;;;;;;3.47;69.04;99703.96;1690190;83;20995;-71
2021/11/21 01:24:32;;;;;;;14.60;4.30;;;;;;;3.47;69.19;99703.96;1706249;82;21155;-70
2021/11/21 01:26:59;;;;;;;14.10;4.65;;;;;;;3.49;69.33;99696.91;1720146;83;21057;-70
2021/11/21 01:29:25;;;;;;;12.47;4.33;;;;;;;3.50;69.46;99695.97;1725662;82;21807;-70
2021/11/21 01:31:52;;;;;;;16.95;4.85;;;;;;;3.52;69.60;99698.84;1731114;82;21424;-70
2021/11/21 01:34:19;;;;;;;14.87;5.62;;;;;;;3.56;69.63;99696.87;1734178;82;21067;-71
2021/11/21 01:36:45;;;;;;;15.93;4.80;;;;;;;3.59;69.76;99700.62;1697038;84;20988;-71
2021/11/21 01:39:12;;;;;;;15.93;4.40;;;;;;;3.60;69.89;99697.92;1658434;85;21425;-70
2021/11/21 01:41:39;;;;;;;13.83;4.35;;;;;;;3.64;70.01;99692.86;1677334;84;21848;-70
2021/11/21 01:44:08;;;;;;;14.47;4.35;;;;;;;3.68;70.14;99693.53;1698722;83;21024;-71
2021/11/21 01:46:37;;;;;;;12.85;4.28;;;;;;;3.70;70.25;99688.58;1684446;85;21454;-71
2021/11/21 01:49:05;;;;;;;14.45;4.87;;;;;;;3.76;70.31;99687.34;1671380;84;20993;-71
2021/11/21 01:51:33;;;;;;;12.58;4.15;;;;;;;3.82;70.44;99689.58;1673064;85;21116;-70
2021/11/21 01:54:01;;;;;;;12.40;4.10;;;;;;;3.90;70.50;99691.25;1688920;84;22241;-70
2021/11/21 01:56:28;;;;;;;14.15;4.90;;;;;;;3.96;70.65;99688.73;1676180;85;21020;-71
2021/11/21 01:58:55;;;;;;;14.43;5.08;;;;;;;4.02;70.77;99683.94;1690706;84;21405;-71
2021/11/21 02:01:23;;;;;;;18.00;5.30;;;;;;;4.09;70.88;99673.11;1730317;82;21096;-70
2021/11/21 02:03:50;;;;;;;16.20;4.67;;;;;;;4.15;70.95;99663.11;1730412;82;21062;-71
2021/11/21 02:06:16;;;;;;;13.22;4.62;;;;;;;4.21;70.92;99660.08;1695205;83;22648;-71
2021/11/21 02:08:43;;;;;;;13.93;4.42;;;;;;;4.27;70.93;99662.78;1697277;83;20958;-71
2021/11/21 02:11:09;;;;;;;14.47;4.80;;;;;;;4.28;70.89;99658.76;1696397;83;21025;-71
2021/11/21 02:13:36;;;;;;;15.50;4.90;;;;;;;4.31;70.93;99657.71;1685040;85;21028;-71
2021/11/21 02:16:04;;;;;;;16.48;4.90;;;;;;;4.34;70.95;99660.11;1668339;84;21456;-71
2021/11/21 02:18:30;;;;;;;16.45;4.60;;;;;;;4.39;70.99;99667.20;1660006;85;22254;-70
2021/11/21 02:20:57;;;;;;;13.48;4.55;;;;;;;4.45;71.13;99670.73;1671815;84;21431;-71
2021/11/21 02:23:26;;;;;;;12.37;4.80;;;;;;;4.51;71.18;99670.32;1677079;85;21076;-71
2021/11/21 02:25:52;;;;;;;11.20;4.20;;;;;;;4.60;71.36;99663.17;1675169;85;21017;-70
2021/11/21 02:28:19;;;;;;;14.70;4.62;;;;;;;4.69;71.46;99659.59;1666716;85;21005;-71
2021/11/21 02:30:46;;;;;;;16.07;4.90;;;;;;;4.77;71.45;99663.38;1658141;85;21834;-71
2021/11/21 02:33:18;;;;;;;11.03;4.40;;;;;;;4.84;71.37;99652.03;1671603;85;21499;-70
2021/11/21 02:35:48;;;;;;;12.88;4.40;;;;;;;4.86;71.17;99648.37;1669345;85;21088;-71
2021/11/21 02:38:17;;;;;;;12.47;4.22;;;;;;;4.84;70.89;99655.49;1669953;85;21000;-71
2021/11/21 02:40:47;;;;;;;13.45;4.12;;;;;;;4.79;70.79;99656.72;1648274;85;21025;-72
2021/11/21 02:43:16;;;;;;;10.60;4.20;;;;;;;4.77;70.98;99658.61;1656034;84;22780;-71
2021/11/21 02:45:44;;;;;;;9.50;3.92;;;;;;;4.76;71.00;99656.94;1659303;85;21094;-71
2021/11/21 02:48:11;;;;;;;11.70;4.28;;;;;;;4.74;70.98;99650.98;1683325;85;21086;-71
2021/11/21 02:50:38;;;;;;;12.95;4.35;;;;;;;4.71;71.01;99646.77;1719458;81;21052;-70
2021/11/21 02:53:07;;;;;;;14.87;4.22;;;;;;;4.69;71.04;99643.89;1675601;84;21058;-71
2021/11/21 02:55:34;;;;;;;12.47;4.05;;;;;;;4.69;71.12;99643.89;1715278;82;21830;-71
2021/11/21 02:58:03;;;;;;;13.48;4.03;;;;;;;4.67;71.21;99635.31;1683656;84;21404;-70
2021/11/21 03:00:33;;;;;;;10.15;4.12;;;;;;;4.67;71.28;99633.54;1697041;81;20964;-70
2021/11/21 03:03:00;;;;;;;11.38;4.08;;;;;;;4.68;71.35;99633.91;1717116;82;21028;-71
2021/11/21 03:05:26;;;;;;;13.43;4.22;;;;;;;4.70;71.44;99622.02;1718679;83;21110;-71
2021/11/21 03:07:55;;;;;;;12.75;4.47;;;;;;;4.69;71.52;99622.50;1683600;84;20956;-70
2021/11/21 03:10:21;;;;;;;11.97;4.67;;;;;;;4.71;71.62;99624.53;1676853;85;20952;-70
2021/11/21 03:12:53;;;;;;;10.95;4.15;;;;;;;4.74;71.74;99626.13;1714457;81;21051;-70
2021/11/21 03:15:21;;;;;;;11.95;4.35;;;;;;;4.76;71.86;99622.46;1671366;85;21029;-71
2021/11/21 03:17:48;;;;;;;12.82;5.40;;;;;;;4.81;72.02;99624.28;1680009;82;21063;-71
2021/11/21 03:20:19;;;;;;;12.93;5.05;;;;;;;4.86;72.20;99627.44;1705656;81;21823;-70
2021/11/21 03:22:45;;;;;;;10.55;4.53;;;;;;;4.93;72.38;99620.48;1691149;82;20981;-71
2021/11/21 03:25:13;;;;;;;12.18;4.75;;;;;;;5.00;72.50;99623.87;1684608;85;21048;-70
2021/11/21 03:27:40;;;;;;;12.25;4.97;;;;;;;5.08;72.59;99620.73;1675591;85;21142;-71
2021/11/21 03:30:08;;;;;;;13.00;5.47;;;;;;;5.17;72.57;99629.27;1716969;81;21126;-71
2021/11/21 03:32:35;;;;;;;11.53;5.65;;;;;;;5.23;72.65;99624.92;1722296;83;21804;-70
2021/11/21 03:35:03;;;;;;;14.95;5.97;;;;;;;5.29;72.68;99625.78;1667793;85;21008;-71
2021/11/21 03:37:30;;;;;;;9.03;5.45;;;;;;;5.35;72.71;99617.98;1681350;84;21459;-71
2021/11/21 03:39:58;;;;;;;13.55;5.60;;;;;;;5.39;72.66;99620.75;1680890;85;21511;-71
2021/11/21 03:42:24;;;;;;;10.82;5.30;;;;;;;5.42;72.67;99613.53;1680091;85;20954;-70
2021/11/21 03:44:51;;;;;;;16.02;5.28;;;;;;;5.45;72.66;99614.61;1679650;85;21754;-71
2021/11/21 03:47:18;;;;;;;11.65;5.72;;;;;;;5.48;72.68;99615.34;1681349;85;21428;-70
2021/11/21 03:49:45;;;;;;;14.75;5.03;;;;;;;5.50;72.71;99610.82;1675968;84;21515;-70
2021/11/21 03:52:11;;;;;;;11.18;5.10;;;;;;;5.51;72.68;99613.36;1681586;85;20965;-70
2021/11/21 03:54:39;;;;;;;10.90;4.97;;;;;;;5.51;72.71;99610.73;1674599;85;20961;-70
2021/11/21 03:57:07;;;;;;;11.53;4.50;;;;;;;5.51;72.68;99614.67;1663905;84;21752;-71
2021/11/21 03:59:34;;;;;;;11.03;4.90;;;;;;;5.44;72.37;99612.11;1680009;85;20961;-71
2021/11/21 04:02:02;;;;;;;12.90;5.22;;;;;;;5.29;72.29;99594.84;1721405;83;20961;-70
2021/11/21 04:04:31;;;;;;;12.68;4.92;;;;;;;5.16;72.36;99598.33;1716207;83;21332;-70
2021/11/21 04:06:58;;;;;;;12.43;5.67;;;;;;;5.09;72.48;99602.30;1704545;83;21511;-70
2021/11/21 04:09:26;;;;;;;12.43;5.20;;;;;;;5.03;72.66;99600.59;1681600;84;20953;-70
2021/11/21 04:11:53;;;;;;;10.53;4.92;;;;;;;4.98;72.85;99594.35;1719375;81;20950;-70
2021/11/21 04:14:20;;;;;;;12.58;5.20;;;;;;;4.96;73.00;99594.94;1726247;81;21463;-70
2021/11/21 04:16:47;;;;;;;12.28;4.97;;;;;;;4.96;73.19;99591.02;1680254;85;21079;-70
2021/11/21 04:19:14;;;;;;;12.43;5.53;;;;;;;4.95;73.38;99588.03;1676062;84;21068;-71
2021/11/21 04:21:40;;;;;;;11.10;4.80;;;;;;;4.95;73.48;99590.65;1680431;84;21492;-70
2021/11/21 04:24:12;;;;;;;9.85;4.90;;;;;;;4.96;73.55;99596.25;1666422;84;21083;-70
2021/11/21 04:26:37;;;;;;;10.53;4.62;;;;;;;4.99;73.74;99597.81;1648550;86;21068;-70
2021/11/21 04:29:03;;;;;;;9.30;4.55;;;;;;;5.01;73.77;99600.67;1671942;85;21473;-71
2021/11/21 04:31:30;;;;;;;12.18;5.10;;;;;;;5.04;73.83;99593.95;1674375;85;21087;-70
2021/11/21 04:33:57;;;;;;;15.10;5.30;;;;;;;5.06;73.86;99586.81;1684004;83;22168;-70
2021/11/21 04:36:24;;;;;;;10.90;4.90;;;;;;;5.09;73.87;99606.23;1702120;83;21563;-70
2021/11/21 04:38:50;;;;;;;14.40;5.83;;;;;;;5.11;73.90;99595.17;1699847;84;21053;-71
2021/11/21 04:41:17;;;;;;;12.90;5.20;;;;;;;5.15;73.89;99590.58;1701905;83;21033;-71
2021/11/21 04:43:45;;;;;;;12.15;5.95;;;;;;;5.15;73.92;99594.03;1701244;84;20973;-70
2021/11/21 04:46:12;;;;;;;13.03;5.90;;;;;;;5.19;73.96;99589.41;1739267;81;22147;-71
2021/11/21 04:48:39;;;;;;;13.15;6.28;;;;;;;5.20;74.01;99588.94;1732521;81;20949;-71
2021/11/21 04:51:05;;;;;;;10.18;5.35;;;;;;;5.23;74.05;99590.05;1726272;82;20965;-70
2021/11/21 04:53:33;;;;;;;11.50;5.65;;;;;;;5.26;74.11;99593.75;1727483;81;21537;-71
2021/11/21 04:56:00;;;;;;;9.60;6.33;;;;;;;5.30;74.17;99580.80;1701242;84;21063;-70
2021/11/21 04:58:27;;;;;;;12.63;7.05;;;;;;;5.35;74.22;99585.26;1666709;84;21866;-71
2021/11/21 05:00:54;;;;;;;12.43;6.87;;;;;;;5.41;74.58;99580.91;1699475;84;20965;-70
2021/11/21 05:03:21;;;;;;;12.60;6.50;;;;;;;5.46;74.70;99577.00;1701457;82;21448;-70
2021/11/21 05:05:48;;;;;;;11.80;6.92;;;;;;;5.53;74.79;99578.72;1718331;81;21460;-72
2021/11/21 05:08:16;;;;;;;10.60;6.45;;;;;;;5.60;74.82;99576.03;1757608;81;21024;-71
2021/11/21 05:10:44;;;;;;;15.65;7.90;;;;;;;5.67;74.75;99572.48;1737538;81;21880;-70
2021/11/21 05:13:10;;;;;;;13.50;7.15;;;;;;;5.73;74.72;99570.74;1730330;82;21061;-71
2021/11/21 05:15:37;;;;;;;13.88;7.28;;;;;;;5.78;74.73;99569.09;1731292;82;21024;-71
2021/11/21 05:18:04;;;;;;;12.18;7.53;;;;;;;5.81;74.70;99571.03;1742405;81;21416;-71
2021/11/21 05:20:31;;;;;;;12.60;7.78;;;;;;;5.86;74.60;99567.58;1751944;81;21111;-71
2021/11/21 05:22:58;;;;;;;14.80;7.62;;;;;;;5.88;74.51;99571.40;1727685;82;21827;-71
2021/11/21 05:25:24;;;;;;;13.03;7.45;;;;;;;5.90;74.47;99574.33;1737285;81;21001;-71
2021/11/21 05:27:51;;;;;;;12.58;7.95;;;;;;;5.92;74.44;99567.19;1746471;81;21060;-71
2021/11/21 05:30:20;;;;;;;13.22;7.97;;;;;;;5.94;74.44;99573.14;1737062;81;21559;-71
2021/11/21 05:32:47;;;;;;;14.35;8.38;;;;;;;5.95;74.55;99570.88;1738870;81;21599;-71
2021/11/21 05:35:14;;;;;;;13.55;8.13;;;;;;;5.99;74.59;99572.83;1687995;84;21464;-71
2021/11/21 05:37:41;;;;;;;16.05;9.03;;;;;;;6.03;74.70;99575.56;1674757;84;21005;-71
2021/11/21 05:40:10;;;;;;;13.40;8.68;;;;;;;6.07;74.84;99574.86;1672725;85;21539;-71
2021/11/21 05:42:37;;;;;;;14.40;9.03;;;;;;;6.11;74.81;99571.91;1692806;83;21053;-71
2021/11/21 05:45:05;;;;;;;14.70;8.60;;;;;;;6.15;75.01;99586.45;1678254;85;21424;-71
2021/11/21 05:47:32;;;;;;;15.78;9.23;;;;;;;6.21;75.06;99574.22;1679410;85;21490;-71
2021/11/21 05:49:59;;;;;;;11.10;7.60;;;;;;;6.27;75.05;99579.02;1671839;85;21017;-71
2021/11/21 05:52:26;;;;;;;14.00;8.83;;;;;;;6.33;75.03;99576.88;1707009;83;20969;-71
2021/11/21 05:54:55;;;;;;;13.50;8.53;;;;;;;6.35;75.00;99574.48;1673297;85;20981;-71
2021/11/21 05:57:21;;;;;;;15.95;8.90;;;;;;;6.39;74.99;99575.11;1678819;85;21079;-71
2021/11/21 05:59:48;;;;;;;12.85;8.55;;;;;;;6.41;74.93;99567.96;1665313;84;22599;-71
2021/11/21 06:02:16;;;;;;;14.30;9.43;;;;;;;6.42;74.88;99567.84;1675932;84;20973;-72
2021/11/21 06:04:43;;;;;;;13.13;8.70;;;;;;;6.42;74.85;99567.84;1668415;84;20977;-72
2021/11/21 06:07:12;;;;;;;12.78;8.58;;;;;;;6.45;74.81;99566.77;1675192;84;21041;-71
2021/11/21 06:09:38;;;;;;;11.68;8.90;;;;;;;6.46;74.81;99565.33;1655646;85;21044;-72
2021/11/21 06:12:06;;;;;;;12.47;9.35;;;;;;;6.49;74.82;99565.13;1676750;85;22786;-71
2021/11/21 06:14:34;;;;;;;14.05;9.38;;;;;;;6.52;74.95;99557.49;1679307;84;20934;-72
2021/11/21 06:17:02;;;;;;;12.10;9.05;;;;;;;6.59;75.01;99553.46;1674083;84;21439;-72
2021/11/21 06:19:30;;;;;;;13.93;9.63;;;;;;;6.66;75.03;99562.55;1680887;84;21005;-72
2021/11/21 06:21:57;;;;;;;11.73;9.03;;;;;;;6.74;75.12;99550.96;1681056;85;21109;-71
2021/11/21 06:24:24;;;;;;;12.35;9.45;;;;;;;6.82;75.08;99570.89;1674773;85;21814;-72
2021/11/21 06:26:51;;;;;;;12.37;9.08;;;;;;;6.91;75.06;99572.46;1677484;85;20961;-71
2021/11/21 06:29:18;;;;;;;13.22;9.38;;;;;;;7.00;75.01;99569.13;1674691;85;21492;-71
2021/11/21 06:31:44;;;;;;;14.15;9.90;;;;;;;7.10;74.92;99568.30;1660374;85;20953;-71
2021/11/21 06:34:11;;;;;;;15.38;9.88;;;;;;;7.20;74.79;99573.66;1676922;83;21005;-71
2021/11/21 06:36:39;;;;;;;10.68;9.33;;;;;;;7.26;74.63;99562.69;1658762;84;22700;-72
2021/11/21 06:39:06;;;;;;;15.55;10.35;;;;;;;7.32;74.52;99571.86;1671010;84;21033;-72
2021/11/21 06:41:37;;;;;;;13.00;9.83;;;;;;;7.36;74.37;99561.01;1641726;86;21045;-72
2021/11/21 06:44:05;;;;;;;13.65;10.65;;;;;;;7.39;74.23;99559.44;1699933;82;21456;-72
2021/11/21 06:46:32;;;;;;;12.78;9.68;;;;;;;7.44;74.16;99564.34;1732410;81;21028;-71
2021/11/21 06:49:00;;;;;;;11.97;9.55;;;;;;;7.48;74.09;99560.50;1673941;84;22634;-71
2021/11/21 06:51:28;;;;;;;14.83;10.20;;;;;;;7.51;73.98;99563.36;1647726;85;22289;-71
2021/11/21 06:53:55;;;;;;;13.38;9.65;;;;;;;7.53;73.93;99567.56;1678221;85;21072;-71
2021/11/21 06:56:22;;;;;;;13.20;10.72;;;;;;;7.55;73.89;99556.44;1676528;84;21025;-72
2021/11/21 06:58:49;;;;;;;13.55;10.30;;;;;;;7.57;73.87;99556.31;1701705;83;21024;-72
2021/11/21 07:01:16;;;;;;;17.60;10.13;;;;;;;7.59;73.83;99559.64;1693480;84;22705;-71
2021/11/21 07:03:43;;;;;;;14.35;10.03;;;;;;;7.62;73.81;99568.59;1684394;84;21027;-71
2021/11/21 07:06:35;;;;;;;12.53;10.30;;;;;;;7.64;73.74;99554.39;1671890;85;21158;-71
2021/11/21 07:09:03;;;;;;;14.70;10.72;;;;;;;7.66;73.72;99557.73;1668543;83;21069;-72
2021/11/21 07:11:30;;;;;;;17.07;11.63;;;;;;;7.68;73.69;99559.75;1673733;83;21021;-71
2021/11/21 07:13:59;;;;;;;16.67;11.60;;;;;;;7.71;73.64;99558.66;1678049;83;21879;-70
2021/11/21 07:16:26;;;;;;;14.58;11.10;;;;;;;7.72;73.62;99545.41;1684253;83;21367;-72
2021/11/21 07:18:54;;;;;;;15.45;11.75;;;;;;;7.77;73.62;99547.66;1714178;82;20966;-72
2021/11/21 07:21:21;;;;;;;17.77;11.88;;;;;;;7.81;73.59;99549.55;1689443;84;21020;-71
2021/11/21 07:23:48;;;;;;;13.93;10.72;;;;;;;7.84;73.52;99548.84;1714906;82;21069;-71
2021/11/21 07:26:14;;;;;;;12.50;10.78;;;;;;;7.90;73.50;99554.06;1709386;81;21807;-72
2021/11/21 07:28:41;;;;;;;14.40;11.00;;;;;;;7.95;73.43;99558.48;1703604;82;21504;-72
2021/11/21 07:31:10;;;;;;;14.78;11.00;;;;;;;8.01;73.29;99564.08;1697264;83;21069;-71
2021/11/21 07:33:37;;;;;;;12.73;10.55;;;;;;;8.07;73.11;99558.78;1673140;83;20989;-71
2021/11/21 07:36:05;;;;;;;12.25;9.83;;;;;;;8.13;72.95;99550.88;1688262;84;21062;-73
2021/11/21 07:38:32;;;;;;;13.40;10.55;;;;;;;8.18;72.78;99555.27;1777412;80;21879;-71
2021/11/21 07:40:58;;;;;;;13.28;10.45;;;;;;;8.23;72.58;99560.52;1751965;80;21008;-73
2021/11/21 07:43:25;;;;;;;12.93;10.18;;;;;;;8.30;72.48;99556.91;1735177;80;20976;-71
2021/11/21 07:45:54;;;;;;;11.55;9.53;;;;;;;8.36;72.29;99556.41;1746588;80;21100;-71
2021/11/21 07:48:21;;;;;;;12.47;10.23;;;;;;;8.43;72.09;99558.89;1744643;80;21001;-70
2021/11/21 07:50:48;;;;;;;14.60;10.00;;;;;;;8.50;71.84;99557.42;1734783;80;21734;-69
2021/11/21 07:53:15;;;;;;;13.78;10.08;;;;;;;8.56;71.57;99554.74;1726293;80;21408;-68
2021/11/21 07:55:42;;;;;;;11.48;9.68;;;;;;;8.62;71.39;99548.97;1729311;82;20984;-69
2021/11/21 07:58:08;;;;;;;13.95;10.32;;;;;;;8.67;71.24;99556.47;1715878;82;21055;-69
2021/11/21 08:00:37;;;;;;;12.53;10.40;;;;;;;8.72;71.10;99556.92;1703391;83;20957;-69
2021/11/21 08:03:03;;;;;;;13.88;10.25;;;;;;;8.78;70.85;99551.13;1703932;82;22254;-69
2021/11/21 08:05:30;;;;;;;12.15;9.70;;;;;;;8.82;70.77;99549.91;1716761;82;21503;-68
2021/11/21 08:07:57;;;;;;;12.65;10.13;;;;;;;8.89;70.54;99562.92;1729605;81;21430;-68
2021/11/21 08:10:23;;;;;;;14.23;10.55;;;;;;;8.94;70.35;99541.44;1738694;82;21436;-68
2021/11/21 08:12:50;;;;;;;12.23;9.68;;;;;;;9.02;70.28;99549.04;1738401;82;20992;-68
2021/11/21 08:15:17;;;;;;;11.28;8.95;;;;;;;9.10;70.21;99549.22;1738424;82;21840;-68
2021/11/21 08:17:44;;;;;;;12.20;9.65;;;;;;;9.18;70.09;99557.30;1737782;82;20961;-70
2021/11/21 08:20:12;;;;;;;14.73;10.85;;;;;;;9.23;69.95;99549.47;1717596;82;42721;-68
2021/11/21 08:22:39;;;;;;;16.57;10.53;;;;;;;9.25;69.69;99554.11;1738305;82;21009;-68
2021/11/21 08:25:06;;;;;;;12.03;10.05;;;;;;;9.26;69.69;99567.15;1738809;80;20988;-68
2021/11/21 08:27:32;;;;;;;12.88;9.98;;;;;;;9.24;69.48;99555.08;1699179;84;22473;-68
2021/11/21 08:29:59;;;;;;;13.98;9.75;;;;;;;9.22;69.39;99559.17;1703421;83;21472;-69
2021/11/21 08:32:26;;;;;;;11.38;9.28;;;;;;;9.22;69.44;99553.91;1703993;83;20964;-68
2021/11/21 08:34:53;;;;;;;12.28;10.00;;;;;;;9.24;69.48;99549.81;1702930;83;20976;-68
2021/11/21 08:37:19;;;;;;;11.40;9.40;;;;;;;9.24;69.45;99538.78;1679443;84;21557;-69
2021/11/21 08:39:46;;;;;;;12.18;9.85;;;;;;;9.27;69.46;99541.17;1677924;85;21826;-68
2021/11/21 08:42:12;;;;;;;11.22;9.68;;;;;;;9.28;69.36;99545.47;1678002;85;21014;-69
2021/11/21 08:44:39;;;;;;;12.53;9.93;;;;;;;9.28;69.32;99542.84;1678019;85;21501;-68
2021/11/21 08:47:06;;;;;;;12.43;10.20;;;;;;;9.28;69.35;99552.55;1643642;84;21038;-69
2021/11/21 08:49:32;;;;;;;15.03;12.43;;;;;;;9.29;69.27;99547.62;1663149;84;21005;-69
2021/11/21 08:51:59;;;;;;;13.90;11.05;;;;;;;9.31;69.26;99541.73;1658439;85;22690;-70
2021/11/21 08:54:26;;;;;;;12.28;9.75;;;;;;;9.32;69.16;99539.44;1681818;84;21025;-70
2021/11/21 08:56:52;;;;;;;15.00;10.80;;;;;;;9.31;69.12;99537.78;1692551;83;20970;-69
2021/11/21 08:59:20;;;;;;;10.98;9.55;;;;;;;9.33;69.08;99534.03;1679487;84;21015;-68
2021/11/21 09:01:47;;;;;;;10.88;9.35;;;;;;;9.32;69.08;99519.19;1680929;85;20964;-69
2021/11/21 09:04:13;;;;;;;14.00;9.93;;;;;;;9.34;69.06;99525.64;1709042;83;22845;-69
2021/11/21 09:06:43;;;;;;;10.40;8.83;;;;;;;9.35;69.10;99527.30;1696131;84;21013;-69
2021/11/21 09:09:09;;;;;;;11.63;9.48;;;;;;;9.38;69.12;99523.94;1702818;84;20965;-68
2021/11/21 09:11:36;;;;;;;10.82;8.98;;;;;;;9.43;69.08;99510.34;1703019;84;21449;-69
2021/11/21 09:14:05;;;;;;;11.85;9.80;;;;;;;9.49;68.94;99511.13;1721529;82;20996;-69
2021/11/21 09:16:32;;;;;;;10.72;9.13;;;;;;;9.54;68.81;99517.30;1703463;82;22707;-70
2021/11/21 09:18:59;;;;;;;11.40;8.93;;;;;;;9.56;68.61;99514.89;1736292;82;21476;-69
2021/11/21 09:21:25;;;;;;;11.68;9.43;;;;;;;9.60;68.48;99511.48;1738530;82;20941;-70
2021/11/21 09:23:52;;;;;;;12.00;9.50;;;;;;;9.63;68.40;99510.72;1738350;82;21428;-70
2021/11/21 09:26:19;;;;;;;10.35;8.95;;;;;;;9.66;68.27;99507.83;1731595;81;21002;-68
2021/11/21 09:28:45;;;;;;;10.60;8.95;;;;;;;9.71;68.14;99507.40;1718985;82;21828;-69
2021/11/21 09:31:13;;;;;;;10.90;8.98;;;;;;;9.73;68.08;99515.52;1738529;82;21456;-68
2021/11/21 09:33:39;;;;;;;14.95;10.53;;;;;;;9.76;67.87;99510.48;1738441;82;21020;-70
2021/11/21 09:36:08;;;;;;;9.83;8.60;;;;;;;9.77;67.67;99516.58;1738364;81;21067;-70
2021/11/21 09:38:36;;;;;;;11.38;8.50;;;;;;;9.77;67.64;99509.98;1762874;81;20945;-69
2021/11/21 09:41:02;;;;;;;10.78;8.60;;;;;;;9.78;67.58;99511.65;1776954;80;21824;-69
2021/11/21 09:43:31;;;;;;;10.15;7.87;;;;;;;9.76;67.41;99505.20;1777214;80;21525;-69
2021/11/21 09:45:59;;;;;;;9.85;8.33;;;;;;;9.77;67.21;99513.94;1763870;80;21495;-70
2021/11/21 09:48:31;;;;;;;10.05;7.42;;;;;;;9.75;67.10;99509.64;1730328;82;21043;-70
2021/11/21 09:50:58;;;;;;;8.88;7.90;;;;;;;9.76;66.98;99514.43;1721607;80;21593;-69
2021/11/21 09:53:24;;;;;;;10.72;8.73;;;;;;;9.76;66.84;99515.75;1710667;84;22857;-69
2021/11/21 09:55:51;;;;;;;8.60;7.70;;;;;;;9.77;66.71;99504.23;1714916;82;21044;-70
2021/11/21 09:58:18;;;;;;;10.25;8.05;;;;;;;9.80;66.77;99511.02;1742858;82;21043;-68
2021/11/21 10:00:45;;;;;;;10.25;6.80;;;;;;;9.83;66.53;99512.88;1742481;82;20997;-69
2021/11/21 10:03:14;;;;;;;8.48;7.42;;;;;;;9.84;66.24;99513.23;1744493;81;21495;-69
2021/11/21 10:06:06;;;;;;;8.70;7.03;;;;;;;9.87;66.06;99512.97;1748645;80;21816;-69
2021/11/21 10:08:24;;;;;;;8.28;6.42;;;;;;;9.89;65.82;99505.75;1742503;80;21040;-69
2021/11/21 10:11:04;;;;;;;8.90;6.85;;;;;;;9.91;65.30;99504.28;1777263;80;21530;-69
2021/11/21 10:13:45;;;;;;;10.25;6.83;;;;;;;9.96;65.31;99511.31;1777098;80;20941;-69
2021/11/21 10:16:30;;;;;;;7.75;6.42;;;;;;;9.97;65.16;99505.89;1777331;80;21001;-69
2021/11/21 10:19:00;;;;;;;8.43;7.05;;;;;;;10.00;65.01;99502.14;1772636;80;21538;-70
2021/11/21 10:21:35;;;;;;;11.68;7.00;;;;;;;9.99;64.87;99509.22;1744121;82;21063;-69
2021/11/21 10:24:27;;;;;;;8.00;6.70;;;;;;;9.99;64.82;99503.95;1746452;82;21066;-69
2021/11/21 10:27:12;;;;;;;7.97;6.60;;;;;;;10.00;64.76;99506.09;1746676;82;20961;-70
2021/11/21 10:29:46;;;;;;;9.95;6.85;;;;;;;10.00;64.69;99504.77;1732430;80;21020;-70
2021/11/21 10:32:33;;;;;;;8.35;6.08;;;;;;;10.03;64.66;99504.00;1750680;80;21756;-70
2021/11/21 10:35:06;;;;;;;8.28;6.40;;;;;;;10.06;64.56;99505.55;1743635;80;21004;-76
2021/11/21 10:37:37;;;;;;;9.08;6.60;;;;;;;10.08;64.50;99489.08;1730353;82;21024;-72
2021/11/21 10:40:13;;;;;;;8.93;6.95;;;;;;;10.10;64.59;99485.81;1777502;80;21408;-72
2021/11/21 10:42:42;;;;;;;8.60;6.83;;;;;;;10.13;64.37;99509.76;1749331;80;21055;-71
2021/11/21 10:45:11;;;;;;;9.08;7.20;;;;;;;10.14;64.27;99476.66;1745380;80;21863;-75
2021/11/21 10:47:48;;;;;;;11.48;7.12;;;;;;;10.16;64.19;99484.43;1745869;80;21012;-74
2021/11/21 10:50:38;;;;;;;8.75;6.85;;;;;;;10.17;64.16;99476.37;1756192;80;21396;-72
2021/11/21 10:53:08;;;;;;;10.43;6.62;;;;;;;10.18;63.80;99471.44;1744718;82;21111;-70
2021/11/21 10:55:37;;;;;;;10.60;7.08;;;;;;;10.21;63.55;99477.73;1754810;80;21011;-73
2021/11/21 10:58:16;;;;;;;9.85;7.67;;;;;;;10.23;63.29;99465.29;1722170;80;21798;-73
2021/11/21 11:00:44;;;;;;;12.33;6.87;;;;;;;10.26;63.39;99463.67;1754797;80;21460;-74
2021/11/21 11:03:19;;;;;;;9.48;6.65;;;;;;;10.28;63.26;99468.32;1731367;80;21480;-73
2021/11/21 11:05:46;;;;;;;7.92;6.35;;;;;;;10.32;63.26;99461.77;1745652;82;21087;-72
2021/11/21 11:08:25;;;;;;;7.65;5.80;;;;;;;10.35;63.11;99459.84;1742418;80;20957;-72
2021/11/21 11:10:52;;;;;;;7.85;6.75;;;;;;;10.39;63.10;99458.58;1742389;80;21810;-71
2021/11/21 11:13:19;;;;;;;8.20;5.80;;;;;;;10.40;62.91;99468.98;1739345;80;21453;-72
2021/11/21 11:15:46;;;;;;;10.08;7.08;;;;;;;10.40;62.86;99451.83;1739981;80;20964;-71
2021/11/21 11:18:15;;;;;;;9.75;6.37;;;;;;;10.41;62.85;99446.05;1730910;82;21044;-71
2021/11/21 11:20:45;;;;;;;8.70;6.92;;;;;;;10.40;62.76;99453.63;1746409;80;21012;-72
2021/11/21 11:23:14;;;;;;;8.50;6.12;;;;;;;10.40;62.75;99447.86;1746333;81;21760;-72
2021/11/21 11:25:44;;;;;;;7.53;6.15;;;;;;;10.39;62.71;99455.94;1752472;80;20981;-71
2021/11/21 11:28:27;;;;;;;6.95;5.62;;;;;;;10.39;62.72;99451.97;1748101;80;21056;-72
2021/11/21 11:30:57;;;;;;;9.40;6.45;;;;;;;10.39;62.80;99458.58;1738979;81;20984;-74
2021/11/21 11:33:37;;;;;;;8.90;6.55;;;;;;;10.37;62.67;99456.57;1748291;80;21076;-72
2021/11/21 11:36:22;;;;;;;7.95;6.12;;;;;;;10.37;62.71;99455.25;1765748;80;21000;-72